Ferry Osaka II — JD3858 — position and weather

sailwx.info

Track history (hours):
 
Tides and Currents Weather Stations Pressure Air Temp Water Temp Dewpoint Dewpoint Depression Visibility Wind Speed Wind Dir Waves Ship Positions

Ferry Osaka II

Last reported at 2018-Feb-15 02:21 UTC. Time now 2018-Feb-24 00:53 UTC.
Position N 33°57' E 135°05'.
Warning: this ship's position is 8 days out of date.

Length 183 m; draft 8 m.

Type: Passenger vessel. MMSI: 431006802.

Date/timePositionNaut miles runAvg speedWind from/ knotsBaromVisibWave heightAir tempDewpointWater temp
2018-Feb-15 02:21N 33°57' E 135°05'2 5.6
2018-Feb-15 02:01N 33°58' E 135°03'5 9.4
2018-Feb-15 01:30N 34°02' E 135°02'816.9
2018-Feb-15 01:01N 34°11' E 135°02'815.8
2018-Feb-15 00:30N 34°18' E 134°59'715.0
2018-Feb-15 00:01N 34°24' E 135°03'815.5
2018-Feb-14 23:30N 34°28' E 135°12'918.5
2018-Feb-14 23:00N 34°34' E 135°19'611.3
2018-Feb-14 22:28N 34°37' E 135°26'0 0.0
2018-Feb-14 21:58N 34°37' E 135°26'0 0.0
2018-Feb-14 21:28N 34°37' E 135°26'0 0.0
2018-Feb-14 20:58N 34°37' E 135°26'0 0.0
2018-Feb-14 20:28N 34°37' E 135°26'2 5.4
2018-Feb-14 20:01N 34°38' E 135°23'918.0
2018-Feb-14 19:30N 34°35' E 135°12'918.7
2018-Feb-14 19:00N 34°37' E 135°01'1020.1
2018-Feb-14 18:30N 34°33' E 134°50'1020.0
2018-Feb-14 18:01N 34°29' E 134°39'1019.4
2018-Feb-14 17:30N 34°26' E 134°28'1019.6
2018-Feb-14 17:00N 34°24' E 134°16'1020.1
2018-Feb-14 16:30N 34°26' E 134°04'915.2
2018-Feb-14 15:56N 34°24' E 133°54'1217.4
2018-Feb-14 15:15N 34°18' E 133°41'4517.8
2018-Feb-14 12:42N 34°05' E 132°49'523.7
2018-Feb-14 12:30N 34°01' E 132°46'1224.0
2018-Feb-14 12:00N 33°52' E 132°36'1223.5
2018-Feb-14 11:30N 33°46' E 132°24'2522.9
2018-Feb-14 10:26N 33°43' E 131°54'1022.7
2018-Feb-14 10:00N 33°45' E 131°43'1122.2
2018-Feb-14 09:30N 33°48' E 131°30'1122.3
2018-Feb-14 09:00N 33°50' E 131°17'1019.7
2018-Feb-14 08:30N 33°53' E 131°06'510.3
2018-Feb-14 07:59N 33°52' E 130°59'0 0.0
2018-Feb-14 07:29N 33°52' E 130°59'0 0.0
2018-Feb-14 06:59N 33°52' E 130°59'0 0.0
2018-Feb-14 06:29N 33°52' E 130°59'0 0.0
2018-Feb-14 05:59N 33°52' E 130°59'0 0.0
2018-Feb-14 05:29N 33°52' E 130°59'0 0.0
2018-Feb-14 04:59N 33°52' E 130°59'0 0.0
2018-Feb-14 04:29N 33°52' E 130°59'0 0.0
2018-Feb-14 03:59N 33°52' E 130°59'0 0.0
2018-Feb-14 03:29N 33°52' E 130°59'0 0.0
2018-Feb-14 02:59N 33°52' E 130°59'0 0.0
2018-Feb-14 02:29N 33°52' E 130°59'0 0.0
2018-Feb-14 01:59N 33°52' E 130°59'0 0.0
2018-Feb-14 01:29N 33°52' E 130°59'0 0.0
2018-Feb-14 00:59N 33°52' E 130°59'0 0.0
2018-Feb-14 00:29N 33°52' E 130°59'0 0.0
2018-Feb-13 23:59N 33°52' E 130°59'0 0.0
2018-Feb-13 23:30N 33°52' E 130°59'3 7.0
2018-Feb-13 23:00N 33°54' E 131°03'816.6
2018-Feb-13 22:30N 33°52' E 131°12'1020.2
2018-Feb-13 22:00N 33°50' E 131°24'1020.1
2018-Feb-13 21:31N 33°48' E 131°36'1020.0
2018-Feb-13 21:00N 33°46' E 131°48'1020.6
2018-Feb-13 20:30N 33°44' E 132°00'1020.1
2018-Feb-13 19:59N 33°43' E 132°13'1020.6
2018-Feb-13 19:30N 33°47' E 132°24'1020.5
2018-Feb-13 19:00N 33°52' E 132°34'1120.6
2018-Feb-13 18:28N 33°59' E 132°44'1521.0
2018-Feb-13 17:46N 34°10' E 132°57'6117.4
2018-Feb-13 14:14N 34°26' E 134°09'520.2
2018-Feb-13 14:00N 34°24' E 134°14'1121.1
2018-Feb-13 13:30N 34°27' E 134°26'1121.4
2018-Feb-13 13:00N 34°31' E 134°38'1121.3
2018-Feb-13 12:30N 34°35' E 134°50'1021.0
2018-Feb-13 12:00N 34°37' E 135°03'1020.8
2018-Feb-13 11:30N 34°36' E 135°15'816.6
2018-Feb-13 11:01N 34°37' E 135°25'0 0.8
2018-Feb-13 10:29N 34°37' E 135°26'0 0.0
2018-Feb-13 09:59N 34°37' E 135°26'0 0.0
2018-Feb-13 09:26N 34°37' E 135°26'0 0.0
2018-Feb-13 08:56N 34°37' E 135°26'0 0.0
2018-Feb-13 08:29N 34°37' E 135°26'0 0.0
2018-Feb-13 07:59N 34°37' E 135°26'0 0.0
2018-Feb-13 07:29N 34°37' E 135°26'0 0.0
2018-Feb-13 06:59N 34°37' E 135°26'0 0.0
2018-Feb-13 06:29N 34°37' E 135°26'0 0.0
2018-Feb-13 05:59N 34°37' E 135°26'0 0.0
2018-Feb-13 05:29N 34°37' E 135°26'0 0.0
2018-Feb-13 04:59N 34°37' E 135°26'0 0.0
2018-Feb-13 04:27N 34°37' E 135°26'0 0.0
2018-Feb-13 03:57N 34°37' E 135°26'0 0.0
2018-Feb-13 03:27N 34°37' E 135°26'0 0.0
2018-Feb-13 02:59N 34°37' E 135°26'0 0.0
2018-Feb-13 02:27N 34°37' E 135°26'0 0.0
2018-Feb-13 01:59N 34°37' E 135°26'0 0.0
2018-Feb-13 01:26N 34°37' E 135°26'0 0.0
2018-Feb-13 00:59N 34°37' E 135°26'0 0.0
2018-Feb-13 00:29N 34°37' E 135°26'0 0.0
2018-Feb-12 23:59N 34°37' E 135°26'0 0.0
2018-Feb-12 23:30N 34°37' E 135°26'3 5.8
2018-Feb-12 23:00N 34°38' E 135°23'917.8
2018-Feb-12 22:30N 34°35' E 135°12'918.2
2018-Feb-12 22:00N 34°36' E 135°02'816.4
2018-Feb-12 21:30N 34°34' E 134°52'1020.5
2018-Feb-12 21:00N 34°30' E 134°40'1121.4
2018-Feb-12 20:31N 34°26' E 134°28'1121.2
2018-Feb-12 20:00N 34°24' E 134°16'1020.4
2018-Feb-12 19:30N 34°26' E 134°04'6516.7
2018-Feb-12 15:38N 34°05' E 132°50'322.0
2018-Feb-12 15:28N 34°02' E 132°48'1021.3
2018-Feb-12 15:00N 33°55' E 132°39'1121.8
2018-Feb-12 14:30N 33°48' E 132°29'1222.3
2018-Feb-12 13:59N 33°43' E 132°16'1222.5
2018-Feb-12 13:26N 33°41' E 132°01'1023.6
2018-Feb-12 13:01N 33°44' E 131°50'1224.0
2018-Feb-12 12:30N 33°47' E 131°36'1223.6
2018-Feb-12 12:00N 33°49' E 131°22'1122.5
2018-Feb-12 11:30N 33°52' E 131°09'714.5
2018-Feb-12 11:00N 33°52' E 130°60'1 1.0
2018-Feb-12 10:31N 33°52' E 130°59'0 0.0
2018-Feb-12 10:00N 33°52' E 130°59'0 0.0
2018-Feb-12 09:30N 33°52' E 130°59'0 0.0
2018-Feb-12 09:00N 33°52' E 130°59'0 0.0
2018-Feb-12 08:30N 33°52' E 130°59'0 0.3
2018-Feb-12 08:00N 33°52' E 130°59'0 0.0
2018-Feb-12 07:30N 33°52' E 130°59'0 0.0
2018-Feb-12 07:00N 33°52' E 130°59'0 0.0
2018-Feb-12 06:30N 33°52' E 130°59'0 0.0
2018-Feb-12 06:00N 33°52' E 130°59'0 0.0
2018-Feb-12 05:30N 33°52' E 130°59'0 0.0
2018-Feb-12 04:59N 33°52' E 130°59'0 0.3
2018-Feb-12 04:30N 33°52' E 130°59'0 0.0
2018-Feb-12 04:00N 33°52' E 130°59'0 0.0
2018-Feb-12 03:30N 33°52' E 130°59'0 0.0
2018-Feb-12 03:00N 33°52' E 130°59'0 0.0
2018-Feb-12 02:30N 33°52' E 130°59'0 0.0
2018-Feb-12 01:59N 33°52' E 130°59'0 0.0
2018-Feb-12 01:30N 33°52' E 130°59'0 0.0
2018-Feb-12 01:01N 33°52' E 130°59'0 0.0
2018-Feb-12 00:30N 33°52' E 130°59'0 0.0
2018-Feb-12 00:00N 33°52' E 130°59'0 0.0
2018-Feb-11 23:27N 33°52' E 130°59'3 7.7
2018-Feb-11 23:00N 33°54' E 131°03'816.4
2018-Feb-11 22:31N 33°52' E 131°12'1020.1
2018-Feb-11 22:01N 33°50' E 131°24'1020.8
2018-Feb-11 21:30N 33°48' E 131°36'1020.9
2018-Feb-11 21:01N 33°45' E 131°49'2020.8
2018-Feb-11 20:02N 33°43' E 132°13'221.1
2018-Feb-11 19:58N 33°44' E 132°14'1021.4
2018-Feb-11 19:30N 33°47' E 132°26'1121.6
2018-Feb-11 19:00N 33°53' E 132°36'1121.6
2018-Feb-11 18:30N 34°01' E 132°45'7017.1
2018-Feb-11 14:24N 34°27' E 134°04'820.9
2018-Feb-11 14:00N 34°24' E 134°14'1121.9
2018-Feb-11 13:30N 34°27' E 134°27'1122.2
2018-Feb-11 13:00N 34°31' E 134°39'1121.3
2018-Feb-11 12:30N 34°35' E 134°51'1019.6
2018-Feb-11 12:00N 34°37' E 135°03'1020.8
2018-Feb-11 11:30N 34°36' E 135°15'816.4
2018-Feb-11 11:01N 34°37' E 135°25'1 1.0
2018-Feb-11 10:29N 34°37' E 135°26'0 0.0
2018-Feb-11 09:59N 34°37' E 135°26'0 0.0
2018-Feb-11 09:29N 34°37' E 135°26'0 0.0
2018-Feb-11 08:59N 34°37' E 135°26'0 0.0
2018-Feb-11 08:29N 34°37' E 135°26'0 0.0
2018-Feb-11 07:59N 34°37' E 135°26'0 0.0
2018-Feb-11 07:29N 34°37' E 135°26'0 0.0
2018-Feb-11 06:59N 34°37' E 135°26'0 0.0
2018-Feb-11 06:29N 34°37' E 135°26'0 0.0
2018-Feb-11 05:59N 34°37' E 135°26'0 0.0
2018-Feb-11 05:29N 34°37' E 135°26'0 0.0
2018-Feb-11 04:59N 34°37' E 135°26'0 0.0
2018-Feb-11 04:29N 34°37' E 135°26'0 0.0
2018-Feb-11 03:59N 34°37' E 135°26'0 0.0
2018-Feb-11 03:29N 34°37' E 135°26'0 0.0
2018-Feb-11 02:59N 34°37' E 135°26'0 0.0
2018-Feb-11 02:29N 34°37' E 135°26'0 0.0
2018-Feb-11 01:59N 34°37' E 135°26'0 0.0
2018-Feb-11 01:29N 34°37' E 135°26'0 0.0
2018-Feb-11 00:59N 34°37' E 135°26'0 0.0
2018-Feb-11 00:29N 34°37' E 135°26'0 0.0
2018-Feb-10 23:59N 34°37' E 135°26'0 0.0
2018-Feb-10 23:30N 34°37' E 135°26'3 5.5
2018-Feb-10 23:01N 34°38' E 135°23'816.3
2018-Feb-10 22:30N 34°35' E 135°13'917.7
2018-Feb-10 22:01N 34°36' E 135°03'816.8
2018-Feb-10 21:30N 34°35' E 134°53'1020.4
2018-Feb-10 21:00N 34°31' E 134°41'1121.3
2018-Feb-10 20:30N 34°27' E 134°29'1021.0
2018-Feb-10 20:00N 34°24' E 134°17'1120.0
2018-Feb-10 19:28N 34°26' E 134°04'613.4
2018-Feb-10 18:59N 34°24' E 133°57'1515.5
2018-Feb-10 18:03N 34°18' E 133°41'219.5
2018-Feb-10 17:58N 34°18' E 133°39'4118.6
2018-Feb-10 15:47N 34°06' E 132°52'622.2
2018-Feb-10 15:31N 34°02' E 132°47'1121.4
2018-Feb-10 15:00N 33°54' E 132°38'1121.8
2018-Feb-10 14:30N 33°47' E 132°27'1122.5
2018-Feb-10 14:00N 33°43' E 132°15'1322.0
2018-Feb-10 13:26N 33°43' E 131°60'1023.0
2018-Feb-10 13:01N 33°45' E 131°48'1223.4
2018-Feb-10 12:30N 33°47' E 131°34'1223.1
2018-Feb-10 12:00N 33°49' E 131°21'1121.5
2018-Feb-10 11:30N 33°52' E 131°08'713.9
2018-Feb-10 11:00N 33°52' E 131°00'1 1.2
2018-Feb-10 10:26N 33°52' E 130°59'0 0.0
2018-Feb-10 09:56N 33°52' E 130°59'0 0.0
2018-Feb-10 09:26N 33°52' E 130°59'0 0.0
2018-Feb-10 08:59N 33°52' E 130°59'0 0.0
2018-Feb-10 08:26N 33°52' E 130°59'0 0.3
2018-Feb-10 07:59N 33°52' E 130°59'0 0.0
2018-Feb-10 07:29N 33°52' E 130°59'0 0.0
2018-Feb-10 06:56N 33°52' E 130°59'0 0.0
2018-Feb-10 06:26N 33°52' E 130°59'0 0.0
2018-Feb-10 05:56N 33°52' E 130°59'0 0.0
2018-Feb-10 05:26N 33°52' E 130°59'0 0.0
2018-Feb-10 04:56N 33°52' E 130°59'0 0.3
2018-Feb-10 04:30N 33°52' E 130°59'0 0.0
2018-Feb-10 04:00N 33°52' E 130°59'0 0.0
2018-Feb-10 03:30N 33°52' E 130°59'0 0.0
2018-Feb-10 03:00N 33°52' E 130°59'0 0.0
2018-Feb-10 02:24N 33°52' E 130°59'0 0.0
2018-Feb-10 02:00N 33°52' E 130°59'0 0.0
2018-Feb-10 01:30N 33°52' E 130°59'0 0.0
2018-Feb-10 01:00N 33°52' E 130°59'0 0.0
2018-Feb-10 00:30N 33°52' E 130°59'0 0.0
2018-Feb-10 00:00N 33°52' E 130°59'0 0.0
2018-Feb-09 23:30N 33°52' E 130°59'3 5.6
2018-Feb-09 23:00N 33°54' E 131°02'314.5
2018-Feb-09 22:46N 33°53' E 131°06'2418.9
2018-Feb-09 21:30N 33°48' E 131°34'15918.7
2018-Feb-09 13:00N 34°31' E 134°39'1121.9
2018-Feb-09 12:30N 34°35' E 134°51'1019.6
2018-Feb-09 12:00N 34°36' E 135°03'1121.1
2018-Feb-09 11:30N 34°36' E 135°16'11 0.8
2018-Feb-08 22:00N 34°36' E 135°03'2919.4
2018-Feb-08 20:30N 34°26' E 134°30'1020.6
2018-Feb-08 20:00N 34°24' E 134°17'8017.8
2018-Feb-08 15:30N 33°59' E 132°45'2222.4
2018-Feb-08 14:30N 33°50' E 132°21'4421.8
2018-Feb-08 12:30N 33°48' E 131°28'1122.5
2018-Feb-08 12:00N 33°51' E 131°15'13 1.2
2018-Feb-08 01:25N 33°52' E 130°59'0 0.0
2018-Feb-08 00:58N 33°52' E 130°59'0 0.0
2018-Feb-08 00:28N 33°52' E 130°59'0 0.0
2018-Feb-07 23:55N 33°52' E 130°59'0 0.0
2018-Feb-07 23:29N 33°52' E 130°59'3 6.6
2018-Feb-07 22:59N 33°54' E 131°03'715.4
2018-Feb-07 22:30N 33°52' E 131°11'1018.9
2018-Feb-07 22:00N 33°50' E 131°23'1019.5
2018-Feb-07 21:31N 33°48' E 131°34'19816.4
2018-Feb-07 09:29N 34°37' E 135°26'0 0.0
2018-Feb-07 08:59N 34°37' E 135°26'0 0.0
2018-Feb-07 08:26N 34°37' E 135°26'0 0.0
2018-Feb-07 07:56N 34°37' E 135°26'0 0.0
2018-Feb-07 07:23N 34°37' E 135°26'0 0.0
2018-Feb-07 06:59N 34°37' E 135°26'0 0.0
2018-Feb-07 06:29N 34°37' E 135°26'0 0.0
2018-Feb-07 05:59N 34°37' E 135°26'0 0.0
2018-Feb-07 05:26N 34°37' E 135°26'0 0.0
2018-Feb-07 04:56N 34°37' E 135°26'0 0.0
2018-Feb-07 04:20N 34°37' E 135°26'0 0.0
2018-Feb-07 03:59N 34°37' E 135°26'0 0.0
2018-Feb-07 03:29N 34°37' E 135°26'0 0.0
2018-Feb-07 02:59N 34°37' E 135°26'0 0.0
2018-Feb-07 02:29N 34°37' E 135°26'0 0.0
2018-Feb-07 01:56N 34°37' E 135°26'0 0.0
2018-Feb-07 01:29N 34°37' E 135°26'0 0.0
2018-Feb-07 00:56N 34°37' E 135°26'0 0.0
2018-Feb-07 00:20N 34°37' E 135°26'0 0.0
2018-Feb-06 23:56N 34°37' E 135°26'0 0.0
2018-Feb-06 23:30N 34°37' E 135°26'2 4.5
2018-Feb-06 23:00N 34°38' E 135°23'917.1
2018-Feb-06 22:30N 34°35' E 135°13'1919.1
2018-Feb-06 21:30N 34°34' E 134°50'1019.8
2018-Feb-06 21:00N 34°29' E 134°39'1020.4
2018-Feb-06 20:30N 34°26' E 134°28'1019.5
2018-Feb-06 20:00N 34°23' E 134°16'1119.7
2018-Feb-06 19:27N 34°26' E 134°04'5418.8
2018-Feb-06 16:34N 34°06' E 133°03'517.1
2018-Feb-06 16:16N 34°09' E 132°58'817.9
2018-Feb-06 15:50N 34°05' E 132°50'1923.2
2018-Feb-06 15:00N 33°51' E 132°34'1322.8
2018-Feb-06 14:26N 33°44' E 132°21'1622.5
2018-Feb-06 13:42N 33°42' E 132°02'622.5
2018-Feb-06 13:27N 33°43' E 131°55'1022.2
2018-Feb-06 13:00N 33°45' E 131°43'1122.1
2018-Feb-06 12:30N 33°48' E 131°30'1121.9
2018-Feb-06 12:00N 33°50' E 131°18'1019.3
2018-Feb-06 11:30N 33°54' E 131°07'612.5
2018-Feb-06 11:00N 33°52' E 130°59'0 0.2
2018-Feb-06 10:29N 33°52' E 130°59'0 0.0
2018-Feb-06 09:59N 33°52' E 130°59'0 0.0
2018-Feb-06 09:29N 33°52' E 130°59'0 0.0
2018-Feb-06 08:59N 33°52' E 130°59'0 0.0
2018-Feb-06 08:29N 33°52' E 130°59'0 0.3
2018-Feb-06 07:59N 33°52' E 130°59'0 0.0
2018-Feb-06 07:17N 33°52' E 130°59'0 0.0
2018-Feb-06 06:59N 33°52' E 130°59'0 0.0
2018-Feb-06 06:29N 33°52' E 130°59'0 0.0
2018-Feb-06 05:59N 33°52' E 130°59'0 0.0
2018-Feb-06 05:29N 33°52' E 130°59'0 0.0
2018-Feb-06 04:59N 33°52' E 130°59'0 0.3
2018-Feb-06 04:30N 33°52' E 130°59'0 0.0
2018-Feb-06 04:00N 33°52' E 130°59'0 0.0
2018-Feb-06 03:30N 33°52' E 130°59'0 0.0
2018-Feb-06 02:54N 33°52' E 130°59'0 0.0
2018-Feb-06 02:30N 33°52' E 130°59'0 0.0
2018-Feb-06 01:54N 33°52' E 130°59'0 0.0
2018-Feb-06 01:30N 33°52' E 130°59'0 0.0
2018-Feb-06 00:54N 33°52' E 130°59'0 0.0
2018-Feb-06 00:30N 33°52' E 130°59'0 0.0
2018-Feb-06 00:00N 33°52' E 130°59'0 0.0
2018-Feb-05 23:30N 33°52' E 130°59'1312.6
2018-Feb-05 22:30N 33°51' E 131°14'1020.9
2018-Feb-05 22:00N 33°49' E 131°27'1121.3
2018-Feb-05 21:30N 33°47' E 131°39'1121.0
2018-Feb-05 20:59N 33°46' E 131°52'1021.0
2018-Feb-05 20:30N 33°46' E 132°05'1122.4
2018-Feb-05 20:00N 33°50' E 132°17'1222.6
2018-Feb-05 19:29N 33°53' E 132°31'1122.6
2018-Feb-05 19:00N 33°57' E 132°43'1721.0
2018-Feb-05 18:12N 34°10' E 132°56'5715.6
2018-Feb-05 14:32N 34°26' E 134°02'221.0
2018-Feb-05 14:25N 34°27' E 134°05'1022.4
2018-Feb-05 13:58N 34°24' E 134°17'5120.6
2018-Feb-05 11:30N 34°36' E 135°17'714.0
2018-Feb-05 10:58N 34°37' E 135°26'0 0.2
2018-Feb-05 10:28N 34°37' E 135°26'0 0.0
2018-Feb-05 09:58N 34°37' E 135°26'0 0.0
2018-Feb-05 09:28N 34°37' E 135°26'0 0.0
2018-Feb-05 08:58N 34°37' E 135°26'0 0.0
2018-Feb-05 08:28N 34°37' E 135°26'0 0.0
2018-Feb-05 07:58N 34°37' E 135°26'0 0.0
2018-Feb-05 07:28N 34°37' E 135°26'0 0.0
2018-Feb-05 06:58N 34°37' E 135°26'0 0.0
2018-Feb-05 06:28N 34°37' E 135°26'0 0.0
2018-Feb-05 05:28N 34°37' E 135°26'0 0.0
2018-Feb-05 04:58N 34°37' E 135°26'0 0.0
2018-Feb-05 04:28N 34°37' E 135°26'0 0.0
2018-Feb-05 03:58N 34°37' E 135°26'0 0.0
2018-Feb-05 03:28N 34°37' E 135°26'0 0.0
2018-Feb-05 02:58N 34°37' E 135°26'0 0.0
2018-Feb-05 02:28N 34°37' E 135°26'  
Track history (hours):
 
Tides and Currents Weather Stations Pressure Air Temp Water Temp Dewpoint Dewpoint Depression Visibility Wind Speed Wind Dir Waves Ship Positions

Ferry Osaka II

Last reported at 2018-Feb-15 02:21 UTC. Time now 2018-Feb-24 00:53 UTC.
Position N 33°57' E 135°05'.
Warning: this ship's position is 8 days out of date.

Length 183 m; draft 8 m.

Type: Passenger vessel. MMSI: 431006802.

Date/timePositionNaut miles runAvg speedWind from/ knotsBaromVisibWave heightAir tempDewpointWater temp
2018-Feb-15 02:21N 33°57' E 135°05'2 5.6
2018-Feb-15 02:01N 33°58' E 135°03'5 9.4
2018-Feb-15 01:30N 34°02' E 135°02'816.9
2018-Feb-15 01:01N 34°11' E 135°02'815.8
2018-Feb-15 00:30N 34°18' E 134°59'715.0
2018-Feb-15 00:01N 34°24' E 135°03'815.5
2018-Feb-14 23:30N 34°28' E 135°12'918.5
2018-Feb-14 23:00N 34°34' E 135°19'611.3
2018-Feb-14 22:28N 34°37' E 135°26'0 0.0
2018-Feb-14 21:58N 34°37' E 135°26'0 0.0
2018-Feb-14 21:28N 34°37' E 135°26'0 0.0
2018-Feb-14 20:58N 34°37' E 135°26'0 0.0
2018-Feb-14 20:28N 34°37' E 135°26'2 5.4
2018-Feb-14 20:01N 34°38' E 135°23'918.0
2018-Feb-14 19:30N 34°35' E 135°12'918.7
2018-Feb-14 19:00N 34°37' E 135°01'1020.1
2018-Feb-14 18:30N 34°33' E 134°50'1020.0
2018-Feb-14 18:01N 34°29' E 134°39'1019.4
2018-Feb-14 17:30N 34°26' E 134°28'1019.6
2018-Feb-14 17:00N 34°24' E 134°16'1020.1
2018-Feb-14 16:30N 34°26' E 134°04'915.2
2018-Feb-14 15:56N 34°24' E 133°54'1217.4
2018-Feb-14 15:15N 34°18' E 133°41'4517.8
2018-Feb-14 12:42N 34°05' E 132°49'523.7
2018-Feb-14 12:30N 34°01' E 132°46'1224.0
2018-Feb-14 12:00N 33°52' E 132°36'1223.5
2018-Feb-14 11:30N 33°46' E 132°24'2522.9
2018-Feb-14 10:26N 33°43' E 131°54'1022.7
2018-Feb-14 10:00N 33°45' E 131°43'1122.2
2018-Feb-14 09:30N 33°48' E 131°30'1122.3
2018-Feb-14 09:00N 33°50' E 131°17'1019.7
2018-Feb-14 08:30N 33°53' E 131°06'510.3
2018-Feb-14 07:59N 33°52' E 130°59'0 0.0
2018-Feb-14 07:29N 33°52' E 130°59'0 0.0
2018-Feb-14 06:59N 33°52' E 130°59'0 0.0
2018-Feb-14 06:29N 33°52' E 130°59'0 0.0
2018-Feb-14 05:59N 33°52' E 130°59'0 0.0
2018-Feb-14 05:29N 33°52' E 130°59'0 0.0
2018-Feb-14 04:59N 33°52' E 130°59'0 0.0
2018-Feb-14 04:29N 33°52' E 130°59'0 0.0
2018-Feb-14 03:59N 33°52' E 130°59'0 0.0
2018-Feb-14 03:29N 33°52' E 130°59'0 0.0
2018-Feb-14 02:59N 33°52' E 130°59'0 0.0
2018-Feb-14 02:29N 33°52' E 130°59'0 0.0
2018-Feb-14 01:59N 33°52' E 130°59'0 0.0
2018-Feb-14 01:29N 33°52' E 130°59'0 0.0
2018-Feb-14 00:59N 33°52' E 130°59'0 0.0
2018-Feb-14 00:29N 33°52' E 130°59'0 0.0
2018-Feb-13 23:59N 33°52' E 130°59'0 0.0
2018-Feb-13 23:30N 33°52' E 130°59'3 7.0
2018-Feb-13 23:00N 33°54' E 131°03'816.6
2018-Feb-13 22:30N 33°52' E 131°12'1020.2
2018-Feb-13 22:00N 33°50' E 131°24'1020.1
2018-Feb-13 21:31N 33°48' E 131°36'1020.0
2018-Feb-13 21:00N 33°46' E 131°48'1020.6
2018-Feb-13 20:30N 33°44' E 132°00'1020.1
2018-Feb-13 19:59N 33°43' E 132°13'1020.6
2018-Feb-13 19:30N 33°47' E 132°24'1020.5
2018-Feb-13 19:00N 33°52' E 132°34'1120.6
2018-Feb-13 18:28N 33°59' E 132°44'1521.0
2018-Feb-13 17:46N 34°10' E 132°57'6117.4
2018-Feb-13 14:14N 34°26' E 134°09'520.2
2018-Feb-13 14:00N 34°24' E 134°14'1121.1
2018-Feb-13 13:30N 34°27' E 134°26'1121.4
2018-Feb-13 13:00N 34°31' E 134°38'1121.3
2018-Feb-13 12:30N 34°35' E 134°50'1021.0
2018-Feb-13 12:00N 34°37' E 135°03'1020.8
2018-Feb-13 11:30N 34°36' E 135°15'816.6
2018-Feb-13 11:01N 34°37' E 135°25'0 0.8
2018-Feb-13 10:29N 34°37' E 135°26'0 0.0
2018-Feb-13 09:59N 34°37' E 135°26'0 0.0
2018-Feb-13 09:26N 34°37' E 135°26'0 0.0
2018-Feb-13 08:56N 34°37' E 135°26'0 0.0
2018-Feb-13 08:29N 34°37' E 135°26'0 0.0
2018-Feb-13 07:59N 34°37' E 135°26'0 0.0
2018-Feb-13 07:29N 34°37' E 135°26'0 0.0
2018-Feb-13 06:59N 34°37' E 135°26'0 0.0
2018-Feb-13 06:29N 34°37' E 135°26'0 0.0
2018-Feb-13 05:59N 34°37' E 135°26'0 0.0
2018-Feb-13 05:29N 34°37' E 135°26'0 0.0
2018-Feb-13 04:59N 34°37' E 135°26'0 0.0
2018-Feb-13 04:27N 34°37' E 135°26'0 0.0
2018-Feb-13 03:57N 34°37' E 135°26'0 0.0
2018-Feb-13 03:27N 34°37' E 135°26'0 0.0
2018-Feb-13 02:59N 34°37' E 135°26'0 0.0
2018-Feb-13 02:27N 34°37' E 135°26'0 0.0
2018-Feb-13 01:59N 34°37' E 135°26'0 0.0
2018-Feb-13 01:26N 34°37' E 135°26'0 0.0
2018-Feb-13 00:59N 34°37' E 135°26'0 0.0
2018-Feb-13 00:29N 34°37' E 135°26'0 0.0
2018-Feb-12 23:59N 34°37' E 135°26'0 0.0
2018-Feb-12 23:30N 34°37' E 135°26'3 5.8
2018-Feb-12 23:00N 34°38' E 135°23'917.8
2018-Feb-12 22:30N 34°35' E 135°12'918.2
2018-Feb-12 22:00N 34°36' E 135°02'816.4
2018-Feb-12 21:30N 34°34' E 134°52'1020.5
2018-Feb-12 21:00N 34°30' E 134°40'1121.4
2018-Feb-12 20:31N 34°26' E 134°28'1121.2
2018-Feb-12 20:00N 34°24' E 134°16'1020.4
2018-Feb-12 19:30N 34°26' E 134°04'6516.7
2018-Feb-12 15:38N 34°05' E 132°50'322.0
2018-Feb-12 15:28N 34°02' E 132°48'1021.3
2018-Feb-12 15:00N 33°55' E 132°39'1121.8
2018-Feb-12 14:30N 33°48' E 132°29'1222.3
2018-Feb-12 13:59N 33°43' E 132°16'1222.5
2018-Feb-12 13:26N 33°41' E 132°01'1023.6
2018-Feb-12 13:01N 33°44' E 131°50'1224.0
2018-Feb-12 12:30N 33°47' E 131°36'1223.6
2018-Feb-12 12:00N 33°49' E 131°22'1122.5
2018-Feb-12 11:30N 33°52' E 131°09'714.5
2018-Feb-12 11:00N 33°52' E 130°60'1 1.0
2018-Feb-12 10:31N 33°52' E 130°59'0 0.0
2018-Feb-12 10:00N 33°52' E 130°59'0 0.0
2018-Feb-12 09:30N 33°52' E 130°59'0 0.0
2018-Feb-12 09:00N 33°52' E 130°59'0 0.0
2018-Feb-12 08:30N 33°52' E 130°59'0 0.3
2018-Feb-12 08:00N 33°52' E 130°59'0 0.0
2018-Feb-12 07:30N 33°52' E 130°59'0 0.0
2018-Feb-12 07:00N 33°52' E 130°59'0 0.0
2018-Feb-12 06:30N 33°52' E 130°59'0 0.0
2018-Feb-12 06:00N 33°52' E 130°59'0 0.0
2018-Feb-12 05:30N 33°52' E 130°59'0 0.0
2018-Feb-12 04:59N 33°52' E 130°59'0 0.3
2018-Feb-12 04:30N 33°52' E 130°59'0 0.0
2018-Feb-12 04:00N 33°52' E 130°59'0 0.0
2018-Feb-12 03:30N 33°52' E 130°59'0 0.0
2018-Feb-12 03:00N 33°52' E 130°59'0 0.0
2018-Feb-12 02:30N 33°52' E 130°59'0 0.0
2018-Feb-12 01:59N 33°52' E 130°59'0 0.0
2018-Feb-12 01:30N 33°52' E 130°59'0 0.0
2018-Feb-12 01:01N 33°52' E 130°59'0 0.0
2018-Feb-12 00:30N 33°52' E 130°59'0 0.0
2018-Feb-12 00:00N 33°52' E 130°59'0 0.0
2018-Feb-11 23:27N 33°52' E 130°59'3 7.7
2018-Feb-11 23:00N 33°54' E 131°03'816.4
2018-Feb-11 22:31N 33°52' E 131°12'1020.1
2018-Feb-11 22:01N 33°50' E 131°24'1020.8
2018-Feb-11 21:30N 33°48' E 131°36'1020.9
2018-Feb-11 21:01N 33°45' E 131°49'2020.8
2018-Feb-11 20:02N 33°43' E 132°13'221.1
2018-Feb-11 19:58N 33°44' E 132°14'1021.4
2018-Feb-11 19:30N 33°47' E 132°26'1121.6
2018-Feb-11 19:00N 33°53' E 132°36'1121.6
2018-Feb-11 18:30N 34°01' E 132°45'7017.1
2018-Feb-11 14:24N 34°27' E 134°04'820.9
2018-Feb-11 14:00N 34°24' E 134°14'1121.9
2018-Feb-11 13:30N 34°27' E 134°27'1122.2
2018-Feb-11 13:00N 34°31' E 134°39'1121.3
2018-Feb-11 12:30N 34°35' E 134°51'1019.6
2018-Feb-11 12:00N 34°37' E 135°03'1020.8
2018-Feb-11 11:30N 34°36' E 135°15'816.4
2018-Feb-11 11:01N 34°37' E 135°25'1 1.0
2018-Feb-11 10:29N 34°37' E 135°26'0 0.0
2018-Feb-11 09:59N 34°37' E 135°26'0 0.0
2018-Feb-11 09:29N 34°37' E 135°26'0 0.0
2018-Feb-11 08:59N 34°37' E 135°26'0 0.0
2018-Feb-11 08:29N 34°37' E 135°26'0 0.0
2018-Feb-11 07:59N 34°37' E 135°26'0 0.0
2018-Feb-11 07:29N 34°37' E 135°26'0 0.0
2018-Feb-11 06:59N 34°37' E 135°26'0 0.0
2018-Feb-11 06:29N 34°37' E 135°26'0 0.0
2018-Feb-11 05:59N 34°37' E 135°26'0 0.0
2018-Feb-11 05:29N 34°37' E 135°26'0 0.0
2018-Feb-11 04:59N 34°37' E 135°26'0 0.0
2018-Feb-11 04:29N 34°37' E 135°26'0 0.0
2018-Feb-11 03:59N 34°37' E 135°26'0 0.0
2018-Feb-11 03:29N 34°37' E 135°26'0 0.0
2018-Feb-11 02:59N 34°37' E 135°26'0 0.0
2018-Feb-11 02:29N 34°37' E 135°26'0 0.0
2018-Feb-11 01:59N 34°37' E 135°26'0 0.0
2018-Feb-11 01:29N 34°37' E 135°26'0 0.0
2018-Feb-11 00:59N 34°37' E 135°26'0 0.0
2018-Feb-11 00:29N 34°37' E 135°26'0 0.0
2018-Feb-10 23:59N 34°37' E 135°26'0 0.0
2018-Feb-10 23:30N 34°37' E 135°26'3 5.5
2018-Feb-10 23:01N 34°38' E 135°23'816.3
2018-Feb-10 22:30N 34°35' E 135°13'917.7
2018-Feb-10 22:01N 34°36' E 135°03'816.8
2018-Feb-10 21:30N 34°35' E 134°53'1020.4
2018-Feb-10 21:00N 34°31' E 134°41'1121.3
2018-Feb-10 20:30N 34°27' E 134°29'1021.0
2018-Feb-10 20:00N 34°24' E 134°17'1120.0
2018-Feb-10 19:28N 34°26' E 134°04'613.4
2018-Feb-10 18:59N 34°24' E 133°57'1515.5
2018-Feb-10 18:03N 34°18' E 133°41'219.5
2018-Feb-10 17:58N 34°18' E 133°39'4118.6
2018-Feb-10 15:47N 34°06' E 132°52'622.2
2018-Feb-10 15:31N 34°02' E 132°47'1121.4
2018-Feb-10 15:00N 33°54' E 132°38'1121.8
2018-Feb-10 14:30N 33°47' E 132°27'1122.5
2018-Feb-10 14:00N 33°43' E 132°15'1322.0
2018-Feb-10 13:26N 33°43' E 131°60'1023.0
2018-Feb-10 13:01N 33°45' E 131°48'1223.4
2018-Feb-10 12:30N 33°47' E 131°34'1223.1
2018-Feb-10 12:00N 33°49' E 131°21'1121.5
2018-Feb-10 11:30N 33°52' E 131°08'713.9
2018-Feb-10 11:00N 33°52' E 131°00'1 1.2
2018-Feb-10 10:26N 33°52' E 130°59'0 0.0
2018-Feb-10 09:56N 33°52' E 130°59'0 0.0
2018-Feb-10 09:26N 33°52' E 130°59'0 0.0
2018-Feb-10 08:59N 33°52' E 130°59'0 0.0
2018-Feb-10 08:26N 33°52' E 130°59'0 0.3
2018-Feb-10 07:59N 33°52' E 130°59'0 0.0
2018-Feb-10 07:29N 33°52' E 130°59'0 0.0
2018-Feb-10 06:56N 33°52' E 130°59'0 0.0
2018-Feb-10 06:26N 33°52' E 130°59'0 0.0
2018-Feb-10 05:56N 33°52' E 130°59'0 0.0
2018-Feb-10 05:26N 33°52' E 130°59'0 0.0
2018-Feb-10 04:56N 33°52' E 130°59'0 0.3
2018-Feb-10 04:30N 33°52' E 130°59'0 0.0
2018-Feb-10 04:00N 33°52' E 130°59'0 0.0
2018-Feb-10 03:30N 33°52' E 130°59'0 0.0
2018-Feb-10 03:00N 33°52' E 130°59'0 0.0
2018-Feb-10 02:24N 33°52' E 130°59'0 0.0
2018-Feb-10 02:00N 33°52' E 130°59'0 0.0
2018-Feb-10 01:30N 33°52' E 130°59'0 0.0
2018-Feb-10 01:00N 33°52' E 130°59'0 0.0
2018-Feb-10 00:30N 33°52' E 130°59'0 0.0
2018-Feb-10 00:00N 33°52' E 130°59'0 0.0
2018-Feb-09 23:30N 33°52' E 130°59'3 5.6
2018-Feb-09 23:00N 33°54' E 131°02'314.5
2018-Feb-09 22:46N 33°53' E 131°06'2418.9
2018-Feb-09 21:30N 33°48' E 131°34'15918.7
2018-Feb-09 13:00N 34°31' E 134°39'1121.9
2018-Feb-09 12:30N 34°35' E 134°51'1019.6
2018-Feb-09 12:00N 34°36' E 135°03'1121.1
2018-Feb-09 11:30N 34°36' E 135°16'11 0.8
2018-Feb-08 22:00N 34°36' E 135°03'2919.4
2018-Feb-08 20:30N 34°26' E 134°30'1020.6
2018-Feb-08 20:00N 34°24' E 134°17'8017.8
2018-Feb-08 15:30N 33°59' E 132°45'2222.4
2018-Feb-08 14:30N 33°50' E 132°21'4421.8
2018-Feb-08 12:30N 33°48' E 131°28'1122.5
2018-Feb-08 12:00N 33°51' E 131°15'13 1.2
2018-Feb-08 01:25N 33°52' E 130°59'0 0.0
2018-Feb-08 00:58N 33°52' E 130°59'0 0.0
2018-Feb-08 00:28N 33°52' E 130°59'0 0.0
2018-Feb-07 23:55N 33°52' E 130°59'0 0.0
2018-Feb-07 23:29N 33°52' E 130°59'3 6.6
2018-Feb-07 22:59N 33°54' E 131°03'715.4
2018-Feb-07 22:30N 33°52' E 131°11'1018.9
2018-Feb-07 22:00N 33°50' E 131°23'1019.5
2018-Feb-07 21:31N 33°48' E 131°34'19816.4
2018-Feb-07 09:29N 34°37' E 135°26'0 0.0
2018-Feb-07 08:59N 34°37' E 135°26'0 0.0
2018-Feb-07 08:26N 34°37' E 135°26'0 0.0
2018-Feb-07 07:56N 34°37' E 135°26'0 0.0
2018-Feb-07 07:23N 34°37' E 135°26'0 0.0
2018-Feb-07 06:59N 34°37' E 135°26'0 0.0
2018-Feb-07 06:29N 34°37' E 135°26'0 0.0
2018-Feb-07 05:59N 34°37' E 135°26'0 0.0
2018-Feb-07 05:26N 34°37' E 135°26'0 0.0
2018-Feb-07 04:56N 34°37' E 135°26'0 0.0
2018-Feb-07 04:20N 34°37' E 135°26'0 0.0
2018-Feb-07 03:59N 34°37' E 135°26'0 0.0
2018-Feb-07 03:29N 34°37' E 135°26'0 0.0
2018-Feb-07 02:59N 34°37' E 135°26'0 0.0
2018-Feb-07 02:29N 34°37' E 135°26'0 0.0
2018-Feb-07 01:56N 34°37' E 135°26'0 0.0
2018-Feb-07 01:29N 34°37' E 135°26'0 0.0
2018-Feb-07 00:56N 34°37' E 135°26'0 0.0
2018-Feb-07 00:20N 34°37' E 135°26'0 0.0
2018-Feb-06 23:56N 34°37' E 135°26'0 0.0
2018-Feb-06 23:30N 34°37' E 135°26'2 4.5
2018-Feb-06 23:00N 34°38' E 135°23'917.1
2018-Feb-06 22:30N 34°35' E 135°13'1919.1
2018-Feb-06 21:30N 34°34' E 134°50'1019.8
2018-Feb-06 21:00N 34°29' E 134°39'1020.4
2018-Feb-06 20:30N 34°26' E 134°28'1019.5
2018-Feb-06 20:00N 34°23' E 134°16'1119.7
2018-Feb-06 19:27N 34°26' E 134°04'5418.8
2018-Feb-06 16:34N 34°06' E 133°03'517.1
2018-Feb-06 16:16N 34°09' E 132°58'817.9
2018-Feb-06 15:50N 34°05' E 132°50'1923.2
2018-Feb-06 15:00N 33°51' E 132°34'1322.8
2018-Feb-06 14:26N 33°44' E 132°21'1622.5
2018-Feb-06 13:42N 33°42' E 132°02'622.5
2018-Feb-06 13:27N 33°43' E 131°55'1022.2
2018-Feb-06 13:00N 33°45' E 131°43'1122.1
2018-Feb-06 12:30N 33°48' E 131°30'1121.9
2018-Feb-06 12:00N 33°50' E 131°18'1019.3
2018-Feb-06 11:30N 33°54' E 131°07'612.5
2018-Feb-06 11:00N 33°52' E 130°59'0 0.2
2018-Feb-06 10:29N 33°52' E 130°59'0 0.0
2018-Feb-06 09:59N 33°52' E 130°59'0 0.0
2018-Feb-06 09:29N 33°52' E 130°59'0 0.0
2018-Feb-06 08:59N 33°52' E 130°59'0 0.0
2018-Feb-06 08:29N 33°52' E 130°59'0 0.3
2018-Feb-06 07:59N 33°52' E 130°59'0 0.0
2018-Feb-06 07:17N 33°52' E 130°59'0 0.0
2018-Feb-06 06:59N 33°52' E 130°59'0 0.0
2018-Feb-06 06:29N 33°52' E 130°59'0 0.0
2018-Feb-06 05:59N 33°52' E 130°59'0 0.0
2018-Feb-06 05:29N 33°52' E 130°59'0 0.0
2018-Feb-06 04:59N 33°52' E 130°59'0 0.3
2018-Feb-06 04:30N 33°52' E 130°59'0 0.0
2018-Feb-06 04:00N 33°52' E 130°59'0 0.0
2018-Feb-06 03:30N 33°52' E 130°59'0 0.0
2018-Feb-06 02:54N 33°52' E 130°59'0 0.0
2018-Feb-06 02:30N 33°52' E 130°59'0 0.0
2018-Feb-06 01:54N 33°52' E 130°59'0 0.0
2018-Feb-06 01:30N 33°52' E 130°59'0 0.0
2018-Feb-06 00:54N 33°52' E 130°59'0 0.0
2018-Feb-06 00:30N 33°52' E 130°59'0 0.0
2018-Feb-06 00:00N 33°52' E 130°59'0 0.0
2018-Feb-05 23:30N 33°52' E 130°59'1312.6
2018-Feb-05 22:30N 33°51' E 131°14'1020.9
2018-Feb-05 22:00N 33°49' E 131°27'1121.3
2018-Feb-05 21:30N 33°47' E 131°39'1121.0
2018-Feb-05 20:59N 33°46' E 131°52'1021.0
2018-Feb-05 20:30N 33°46' E 132°05'1122.4
2018-Feb-05 20:00N 33°50' E 132°17'1222.6
2018-Feb-05 19:29N 33°53' E 132°31'1122.6
2018-Feb-05 19:00N 33°57' E 132°43'1721.0
2018-Feb-05 18:12N 34°10' E 132°56'5715.6
2018-Feb-05 14:32N 34°26' E 134°02'221.0
2018-Feb-05 14:25N 34°27' E 134°05'1022.4
2018-Feb-05 13:58N 34°24' E 134°17'5120.6
2018-Feb-05 11:30N 34°36' E 135°17'714.0
2018-Feb-05 10:58N 34°37' E 135°26'0 0.2
2018-Feb-05 10:28N 34°37' E 135°26'0 0.0
2018-Feb-05 09:58N 34°37' E 135°26'0 0.0
2018-Feb-05 09:28N 34°37' E 135°26'0 0.0
2018-Feb-05 08:58N 34°37' E 135°26'0 0.0
2018-Feb-05 08:28N 34°37' E 135°26'0 0.0
2018-Feb-05 07:58N 34°37' E 135°26'0 0.0
2018-Feb-05 07:28N 34°37' E 135°26'0 0.0
2018-Feb-05 06:58N 34°37' E 135°26'0 0.0
2018-Feb-05 06:28N 34°37' E 135°26'0 0.0
2018-Feb-05 05:28N 34°37' E 135°26'0 0.0
2018-Feb-05 04:58N 34°37' E 135°26'0 0.0
2018-Feb-05 04:28N 34°37' E 135°26'0 0.0
2018-Feb-05 03:58N 34°37' E 135°26'0 0.0
2018-Feb-05 03:28N 34°37' E 135°26'0 0.0
2018-Feb-05 02:58N 34°37' E 135°26'0 0.0
2018-Feb-05 02:28N 34°37' E 135°26'  

Dump ship's entire track history